Terminal Aerodrome Forecast
Issued by NWS Goodland, KS

Home | Current Version | Previous Version | Text Only | Print | Product List | Glossary On
Versions: 1 2 3 4 5 6 7 8 9 10 11 12 13 14 15 16 17 18
000
FTUS43 KGLD 011720
TAFGLD
TAF
KGLD 011720Z 0118/0218 35009KT P6SM SCT025 SCT120 SCT300
      TEMPO 0118/0120 BKN025
     FM020200 VRB03KT P6SM FEW050 OVC090
     FM020600 17006KT P6SM VCSH BKN050
     FM021000 17012KT P6SM SCT015 BKN040
     FM021400 17017G25KT P6SM SCT015 BKN040
     FM021700 18021G31KT P6SM SCT025 SCT200=

USA.gov is the U.S. government's official web portal to all federal, state and local government web resources and services.